createdAt,value
2023-02-19T00:02:59.121Z,101002.88
2023-02-19T00:08:00.984Z,100996.19
2023-02-19T00:13:04.002Z,100990.09
2023-02-19T00:18:05.401Z,100982.91
2023-02-19T00:23:07.946Z,100979.28
2023-02-19T00:28:06.182Z,100983.53
2023-02-19T00:33:04.515Z,100977.63
2023-02-19T00:38:05.909Z,100981.22
2023-02-19T00:43:07.010Z,100968.94
2023-02-19T00:48:05.269Z,100965.88
2023-02-19T00:53:04.594Z,100953.91
2023-02-19T00:58:04.613Z,100965.38
2023-02-19T01:03:07.145Z,100963.13
2023-02-19T01:08:10.723Z,100959.69
2023-02-19T01:13:13.419Z,100964.25
2023-02-19T01:18:13.338Z,100968.03
2023-02-19T01:23:13.240Z,100981.13
2023-02-19T01:28:16.088Z,100970.03
2023-02-19T01:33:14.836Z,100971.19
2023-02-19T01:38:14.675Z,100972.97
2023-02-19T01:43:19.053Z,100965.75
2023-02-19T01:48:40.852Z,100965.75
2023-02-19T01:53:40.863Z,100970.97
2023-02-19T01:58:40.409Z,100969.16
2023-02-19T02:03:40.597Z,100983.31
2023-02-19T02:09:05.031Z,100982.63
2023-02-19T02:14:03.514Z,100985.13
2023-02-19T02:19:03.718Z,100984.31
2023-02-19T02:24:23.800Z,100977.97
2023-02-19T02:29:47.822Z,100985.47
2023-02-19T02:34:50.010Z,100994.81
2023-02-19T02:39:48.512Z,101008.63
2023-02-19T02:45:12.068Z,101004.50
2023-02-19T02:50:20.318Z,101018.28
2023-02-19T02:55:22.051Z,101028.44
2023-02-19T03:00:24.678Z,101025.56
2023-02-19T03:05:43.776Z,101029.16
2023-02-19T03:10:43.087Z,101028.63
2023-02-19T03:16:07.751Z,101031.16
2023-02-19T03:21:10.656Z,101039.41
2023-02-19T03:26:11.906Z,101054.66
2023-02-19T03:31:22.452Z,101053.41
2023-02-19T03:36:26.050Z,101055.75
2023-02-19T03:41:31.756Z,101061.06
2023-02-19T03:46:33.917Z,101058.47
2023-02-19T03:51:35.823Z,101044.13
2023-02-19T03:56:56.741Z,101055.56
2023-02-19T04:02:01.698Z,101062.84
2023-02-19T04:07:09.739Z,101085.41
2023-02-19T04:12:13.115Z,101081.75
2023-02-19T04:18:03.101Z,101084.94
2023-02-19T04:23:06.942Z,101069.91
2023-02-19T04:28:04.703Z,101082.50
2023-02-19T04:33:07.203Z,101076.94
2023-02-19T04:38:14.706Z,101083.22
2023-02-19T04:43:18.828Z,101088.84
2023-02-19T04:48:17.788Z,101087.59
2023-02-19T04:53:18.609Z,101102.84
2023-02-19T04:58:23.823Z,101095.34
2023-02-19T05:03:24.236Z,101094.88
2023-02-19T05:08:22.257Z,101107.66
2023-02-19T05:13:25.564Z,101117.66
2023-02-19T05:18:29.497Z,101128.09
2023-02-19T05:23:29.163Z,101133.28
2023-02-19T05:28:31.061Z,101130.19
2023-02-19T05:33:32.357Z,101150.97
2023-02-19T05:38:35.103Z,101150.97
2023-02-19T05:43:33.969Z,101172.31
2023-02-19T05:48:34.764Z,101184.78
2023-02-19T05:53:35.709Z,101190.28
2023-02-19T05:58:36.434Z,101190.53
2023-02-19T06:03:44.438Z,101194.78
2023-02-19T06:08:48.091Z,101212.88
2023-02-19T06:13:49.868Z,101219.88
2023-02-19T06:18:53.362Z,101222.06
2023-02-19T06:23:55.493Z,101233.97
2023-02-19T06:28:56.568Z,101237.81
2023-02-19T06:34:07.485Z,101244.81
2023-02-19T06:39:06.579Z,101231.34
2023-02-19T06:44:19.792Z,101233.03
2023-02-19T06:49:18.993Z,101235.72
2023-02-19T06:54:20.230Z,101251.75
2023-02-19T06:59:21.353Z,101255.28
2023-02-19T07:04:26.200Z,101258.13
2023-02-19T07:09:35.056Z,101258.75
2023-02-19T07:14:39.681Z,101256.84
2023-02-19T07:19:39.123Z,101256.19
2023-02-19T07:24:47.879Z,101238.88
2023-02-19T07:30:11.888Z,101226.06
2023-02-19T07:35:13.226Z,101225.84
2023-02-19T07:40:12.047Z,101229.84
2023-02-19T07:45:14.074Z,101209.66
2023-02-19T07:50:14.950Z,101211.59
2023-02-19T07:55:16.741Z,101217.03
2023-02-19T08:00:15.016Z,101235.03
2023-02-19T08:05:14.247Z,101227.31
2023-02-19T08:10:34.922Z,101221.47
2023-02-19T08:15:35.377Z,101222.47
2023-02-19T08:20:37.053Z,101213.03
2023-02-19T08:25:36.015Z,101217.94
2023-02-19T08:30:41.316Z,101203.88
2023-02-19T08:35:44.123Z,101199.06
2023-02-19T08:40:44.434Z,101215.72
2023-02-19T08:45:49.621Z,101223.38
2023-02-19T08:50:54.052Z,101229.91
2023-02-19T08:56:17.166Z,101220.50
2023-02-19T09:01:22.130Z,101226.50
2023-02-19T09:06:23.950Z,101212.88
2023-02-19T09:11:23.012Z,101212.63
2023-02-19T09:16:25.109Z,101209.94
2023-02-19T09:21:22.562Z,101216.91
2023-02-19T09:26:23.723Z,101195.84
2023-02-19T09:31:24.931Z,101188.66
2023-02-19T09:36:24.833Z,101193.34
2023-02-19T09:41:27.817Z,101183.13
2023-02-19T09:46:38.964Z,101175.44
2023-02-19T09:51:38.168Z,101168.19
2023-02-19T09:56:41.364Z,101167.47
2023-02-19T10:01:40.980Z,101156.44
2023-02-19T10:06:45.998Z,101148.28
2023-02-19T10:11:47.644Z,101151.63
2023-02-19T10:16:55.182Z,101160.66
2023-02-19T10:22:23.158Z,101130.50
2023-02-19T10:27:35.400Z,101145.06
2023-02-19T10:32:53.086Z,101130.78
2023-02-19T10:37:59.466Z,101125.00
2023-02-19T10:43:02.145Z,101106.50
2023-02-19T10:48:02.835Z,101081.81
2023-02-19T10:53:04.656Z,101098.59
2023-02-19T10:58:25.004Z,101087.28
2023-02-19T11:03:26.188Z,101053.25
2023-02-19T11:08:38.611Z,101058.13
2023-02-19T11:13:42.531Z,101075.97
2023-02-19T11:18:43.057Z,101057.34
2023-02-19T11:23:46.939Z,101054.06
2023-02-19T11:28:45.821Z,101056.56
2023-02-19T11:33:51.436Z,101042.81
2023-02-19T11:38:48.643Z,101042.16
2023-02-19T11:43:53.260Z,101044.69
2023-02-19T11:49:00.549Z,101051.44
2023-02-19T11:54:24.959Z,101052.22
2023-02-19T11:59:38.657Z,101046.38
2023-02-19T12:04:40.567Z,101036.00
2023-02-19T12:10:07.560Z,101029.47
2023-02-19T12:15:07.978Z,101029.09
2023-02-19T12:20:27.778Z,101009.84
2023-02-19T12:25:29.215Z,101012.31
2023-02-19T12:30:32.060Z,101015.56
2023-02-19T12:35:52.766Z,101004.78
2023-02-19T12:40:50.894Z,101029.94
2023-02-19T12:46:05.290Z,101001.78
2023-02-19T12:51:05.768Z,101000.16
2023-02-19T12:56:06.803Z,101009.94
2023-02-19T13:01:05.669Z,100984.56
2023-02-19T13:06:36.446Z,100989.03
2023-02-19T13:11:44.905Z,100942.38
2023-02-19T13:16:45.307Z,100958.81
2023-02-19T13:22:05.750Z,100951.09
2023-02-19T13:27:07.993Z,100944.19
2023-02-19T13:32:10.317Z,100938.50
2023-02-19T13:37:12.589Z,100938.47
2023-02-19T13:42:12.653Z,100926.44
2023-02-19T13:47:34.993Z,100919.88
2023-02-19T13:52:33.853Z,100913.84
2023-02-19T13:57:33.836Z,100935.63
2023-02-19T14:02:34.156Z,100934.00
2023-02-19T14:07:37.768Z,100919.03
2023-02-19T14:12:37.101Z,100910.53
2023-02-19T14:17:44.699Z,100917.00
2023-02-19T14:23:02.148Z,100912.56
2023-02-19T14:28:06.761Z,100914.38
2023-02-19T14:33:11.088Z,100913.78
2023-02-19T14:38:21.701Z,100913.59
2023-02-19T14:43:23.855Z,100891.69
2023-02-19T14:48:25.429Z,100887.81
2023-02-19T14:53:24.456Z,100886.00
2023-02-19T14:58:26.489Z,100891.88
2023-02-19T15:03:36.638Z,100898.78
2023-02-19T15:09:07.875Z,100894.13
2023-02-19T15:14:07.344Z,100901.59
2023-02-19T15:19:08.521Z,100894.88
2023-02-19T15:24:09.618Z,100899.09
2023-02-19T15:29:14.629Z,100900.31
2023-02-19T15:34:22.537Z,100891.97
2023-02-19T15:39:23.045Z,100903.31
2023-02-19T15:44:22.780Z,100904.69
2023-02-19T15:49:32.530Z,100897.16
2023-02-19T15:54:46.921Z,100905.66
2023-02-19T15:59:46.994Z,100910.66
2023-02-19T16:04:48.610Z,100912.69
2023-02-19T16:09:49.462Z,100920.50
2023-02-19T16:14:50.640Z,100914.63
2023-02-19T16:19:59.859Z,100908.72
2023-02-19T16:25:01.053Z,100908.44
2023-02-19T16:30:03.174Z,100929.44
2023-02-19T16:35:07.387Z,100930.94
2023-02-19T16:40:09.954Z,100919.25
2023-02-19T16:45:08.582Z,100912.94
2023-02-19T16:50:10.727Z,100927.09
2023-02-19T16:55:12.434Z,100926.25
2023-02-19T17:00:18.738Z,100926.56
2023-02-19T17:05:19.556Z,100928.69
2023-02-19T17:10:23.165Z,100924.25
2023-02-19T17:15:25.363Z,100921.44
2023-02-19T17:20:27.651Z,100910.78
2023-02-19T17:25:29.374Z,100918.09
2023-02-19T17:30:31.072Z,100906.06
2023-02-19T17:35:30.283Z,100912.25
2023-02-19T17:40:33.077Z,100911.19
2023-02-19T17:45:31.864Z,100903.81
2023-02-19T17:50:30.910Z,100911.03
2023-02-19T17:55:29.354Z,100908.78
2023-02-19T18:00:27.709Z,100904.84
2023-02-19T18:05:28.343Z,100909.88
2023-02-19T18:10:27.600Z,100928.69
2023-02-19T18:15:28.045Z,100921.41
2023-02-19T18:20:33.177Z,100919.97
2023-02-19T18:25:35.160Z,100918.63
2023-02-19T18:30:33.923Z,100914.53
2023-02-19T18:35:34.785Z,100924.59
2023-02-19T18:40:32.800Z,100926.22
2023-02-19T18:45:37.047Z,100917.16
2023-02-19T18:52:05.960Z,100930.06
2023-02-19T19:02:48.695Z,100936.28
2023-02-19T19:07:55.207Z,100927.94
2023-02-19T19:13:21.055Z,100939.88
2023-02-19T19:18:25.258Z,100945.59
2023-02-19T19:23:30.513Z,100952.88
2023-02-19T19:28:35.378Z,100948.63
2023-02-19T19:33:55.087Z,100959.50
2023-02-19T19:38:58.949Z,100946.41
2023-02-19T19:43:58.196Z,100951.75
2023-02-19T19:48:57.167Z,100941.78
2023-02-19T19:53:55.488Z,100950.22
2023-02-19T19:59:01.530Z,100960.44
2023-02-19T20:03:59.807Z,100953.66
2023-02-19T20:09:01.519Z,100983.50
2023-02-19T20:14:03.465Z,100985.06
2023-02-19T20:25:17.377Z,100992.03
2023-02-19T20:30:21.739Z,100989.88
2023-02-19T20:35:37.881Z,100998.91
2023-02-19T20:40:39.544Z,100995.25
2023-02-19T20:45:38.265Z,100997.34
2023-02-19T20:50:37.235Z,100991.06
2023-02-19T20:55:36.325Z,100988.88
2023-02-19T21:00:35.734Z,100991.50
2023-02-19T21:05:37.277Z,101003.88
2023-02-19T21:10:34.898Z,101002.06
2023-02-19T21:15:37.103Z,100999.91
2023-02-19T21:21:35.715Z,101020.41
2023-02-19T21:26:34.936Z,101029.84
2023-02-19T21:31:37.894Z,101021.19
2023-02-19T21:36:38.458Z,101032.50
2023-02-19T21:41:37.911Z,101038.94
2023-02-19T21:46:35.569Z,101038.97
2023-02-19T21:51:35.702Z,101042.59
2023-02-19T21:56:37.899Z,101022.84
2023-02-19T22:01:42.056Z,101028.28
2023-02-19T22:06:44.125Z,101034.16
2023-02-19T22:11:46.495Z,101040.06
2023-02-19T22:16:49.365Z,101043.38
2023-02-19T22:21:49.847Z,101058.75
2023-02-19T22:26:52.980Z,101038.31
2023-02-19T22:31:55.067Z,101051.88
2023-02-19T22:37:01.620Z,101050.59
2023-02-19T22:42:02.668Z,101056.19
2023-02-19T22:47:01.400Z,101060.41
2023-02-19T22:52:09.532Z,101053.41
2023-02-19T22:57:07.859Z,101057.16
2023-02-19T23:02:06.494Z,101066.44
2023-02-19T23:07:09.459Z,101047.66
2023-02-19T23:12:10.596Z,101034.41
2023-02-19T23:17:10.091Z,101035.22
2023-02-19T23:22:11.431Z,101040.44
2023-02-19T23:27:11.893Z,101048.28
2023-02-19T23:32:13.296Z,101045.97
2023-02-19T23:37:12.648Z,101061.69
2023-02-19T23:42:13.529Z,101055.72
2023-02-19T23:47:15.699Z,101059.25
2023-02-19T23:52:14.480Z,101017.94
2023-02-19T23:57:14.206Z,101061.69
